Zim Vancouver — A8LK5 — position and weather

sailwx.info

Track history (hours):
 
Tides and Currents Weather Stations Pressure Air Temp Water Temp Dewpoint Dewpoint Depression Visibility Wind Speed Wind Dir Waves Ship Positions

Zim Vancouver

Last reported at 2015-Apr-18 18:32 UTC. Time now 2015-Apr-21 05:03 UTC.
Position N 31°27' E 032°20'.

Length 260 m; draft 12.6 m.

Type: Ship. MMSI: 636013214.

Date/timePositionNaut miles runAvg speedWind from/ knotsBaromVisibWave heightAir tempDewpointWater temp
2015-Apr-18 18:32N 31°27' E 032°20'110 6.7
2015-Apr-18 02:06N 32°41' E 033°55'712.6
2015-Apr-18 01:32N 32°45' E 034°02'1412.6
2015-Apr-18 00:26N 32°54' E 034°15'1111.8
2015-Apr-17 23:28N 32°58' E 034°27'1212.4
2015-Apr-17 22:32N 32°56' E 034°41'1212.3
2015-Apr-17 21:33N 32°53' E 034°55'7 0.9
2015-Apr-17 14:14N 32°49' E 035°01'0 0.0
2015-Apr-17 13:26N 32°49' E 035°01'0 0.0
2015-Apr-17 12:32N 32°49' E 035°01'0 0.0
2015-Apr-17 07:17N 32°49' E 035°01'0 0.0
2015-Apr-17 00:11N 32°49' E 035°01'0 0.0
2015-Apr-16 22:26N 32°49' E 035°01'7 3.5
2015-Apr-16 20:32N 32°54' E 034°56'19 4.7
2015-Apr-16 16:33N 32°57' E 034°34'5417.9
2015-Apr-16 13:33N 33°18' E 033°36'3918.0
2015-Apr-16 11:24N 33°36' E 032°54'1618.6
2015-Apr-16 10:33N 33°43' E 032°38'35917.9
2015-Apr-15 14:32N 37°04' E 026°33'2618.6
2015-Apr-15 13:07N 37°20' E 026°06'1218.8
2015-Apr-15 12:28N 37°28' E 025°55'1817.5
2015-Apr-15 11:28N 37°45' E 025°48'23414.5
2015-Apr-14 19:20N 40°57' E 028°40'8 0.6
2015-Apr-14 05:33N 40°55' E 028°51'1612.0
2015-Apr-14 04:10N 41°09' E 029°04'16 2.1
2015-Apr-13 20:34N 41°18' E 029°21'0 0.2
2015-Apr-13 19:33N 41°18' E 029°21'0 0.2
2015-Apr-13 18:15N 41°18' E 029°20'0 0.3
2015-Apr-13 17:34N 41°19' E 029°20'1 1.0
2015-Apr-13 16:34N 41°19' E 029°19'3 3.3
2015-Apr-13 15:34N 41°17' E 029°23'1 0.8
2015-Apr-13 14:14N 41°18' E 029°22'1 0.7
2015-Apr-13 13:33N 41°18' E 029°21'0 0.2
2015-Apr-13 12:33N 41°18' E 029°21'3 2.9
2015-Apr-13 11:34N 41°18' E 029°25'1 1.0
2015-Apr-13 10:34N 41°18' E 029°24'1 0.8
2015-Apr-13 09:33N 41°18' E 029°23'1 0.8
2015-Apr-13 08:33N 41°18' E 029°22'1 0.8
2015-Apr-13 07:34N 41°18' E 029°21'1 0.6
2015-Apr-13 06:33N 41°18' E 029°20'5 0.4
2015-Apr-12 19:33N 41°22' E 029°17'1 0.6
2015-Apr-12 18:32N 41°23' E 029°16'0 0.5
2015-Apr-12 17:34N 41°23' E 029°16'0 0.3
2015-Apr-12 16:34N 41°23' E 029°17'0 0.2
2015-Apr-12 15:34N 41°23' E 029°17'0 0.4
2015-Apr-12 14:33N 41°23' E 029°17'2 1.5
2015-Apr-12 13:34N 41°24' E 029°15'1 0.6
2015-Apr-12 12:34N 41°24' E 029°15'0 0.4
2015-Apr-12 11:34N 41°25' E 029°15'0 0.4
2015-Apr-12 10:34N 41°25' E 029°14'0 0.1
2015-Apr-12 09:31N 41°25' E 029°14'0 0.3
2015-Apr-12 08:34N 41°25' E 029°14'0 0.2
2015-Apr-12 06:34N 41°25' E 029°13'2 0.2
2015-Apr-11 19:33N 41°26' E 029°15'0 0.4
2015-Apr-11 18:31N 41°26' E 029°15'1 0.6
2015-Apr-11 17:34N 41°26' E 029°16'6 0.7
2015-Apr-11 08:28N 41°33' E 029°14'1516.5
2015-Apr-11 07:33N 41°47' E 029°19'1817.7
2015-Apr-11 06:33N 42°04' E 029°25'  
Track history (hours):
 
Tides and Currents Weather Stations Pressure Air Temp Water Temp Dewpoint Dewpoint Depression Visibility Wind Speed Wind Dir Waves Ship Positions

Zim Vancouver

Last reported at 2015-Apr-18 18:32 UTC. Time now 2015-Apr-21 05:03 UTC.
Position N 31°27' E 032°20'.

Length 260 m; draft 12.6 m.

Type: Ship. MMSI: 636013214.

Date/timePositionNaut miles runAvg speedWind from/ knotsBaromVisibWave heightAir tempDewpointWater temp
2015-Apr-18 18:32N 31°27' E 032°20'110 6.7
2015-Apr-18 02:06N 32°41' E 033°55'712.6
2015-Apr-18 01:32N 32°45' E 034°02'1412.6
2015-Apr-18 00:26N 32°54' E 034°15'1111.8
2015-Apr-17 23:28N 32°58' E 034°27'1212.4
2015-Apr-17 22:32N 32°56' E 034°41'1212.3
2015-Apr-17 21:33N 32°53' E 034°55'7 0.9
2015-Apr-17 14:14N 32°49' E 035°01'0 0.0
2015-Apr-17 13:26N 32°49' E 035°01'0 0.0
2015-Apr-17 12:32N 32°49' E 035°01'0 0.0
2015-Apr-17 07:17N 32°49' E 035°01'0 0.0
2015-Apr-17 00:11N 32°49' E 035°01'0 0.0
2015-Apr-16 22:26N 32°49' E 035°01'7 3.5
2015-Apr-16 20:32N 32°54' E 034°56'19 4.7
2015-Apr-16 16:33N 32°57' E 034°34'5417.9
2015-Apr-16 13:33N 33°18' E 033°36'3918.0
2015-Apr-16 11:24N 33°36' E 032°54'1618.6
2015-Apr-16 10:33N 33°43' E 032°38'35917.9
2015-Apr-15 14:32N 37°04' E 026°33'2618.6
2015-Apr-15 13:07N 37°20' E 026°06'1218.8
2015-Apr-15 12:28N 37°28' E 025°55'1817.5
2015-Apr-15 11:28N 37°45' E 025°48'23414.5
2015-Apr-14 19:20N 40°57' E 028°40'8 0.6
2015-Apr-14 05:33N 40°55' E 028°51'1612.0
2015-Apr-14 04:10N 41°09' E 029°04'16 2.1
2015-Apr-13 20:34N 41°18' E 029°21'0 0.2
2015-Apr-13 19:33N 41°18' E 029°21'0 0.2
2015-Apr-13 18:15N 41°18' E 029°20'0 0.3
2015-Apr-13 17:34N 41°19' E 029°20'1 1.0
2015-Apr-13 16:34N 41°19' E 029°19'3 3.3
2015-Apr-13 15:34N 41°17' E 029°23'1 0.8
2015-Apr-13 14:14N 41°18' E 029°22'1 0.7
2015-Apr-13 13:33N 41°18' E 029°21'0 0.2
2015-Apr-13 12:33N 41°18' E 029°21'3 2.9
2015-Apr-13 11:34N 41°18' E 029°25'1 1.0
2015-Apr-13 10:34N 41°18' E 029°24'1 0.8
2015-Apr-13 09:33N 41°18' E 029°23'1 0.8
2015-Apr-13 08:33N 41°18' E 029°22'1 0.8
2015-Apr-13 07:34N 41°18' E 029°21'1 0.6
2015-Apr-13 06:33N 41°18' E 029°20'5 0.4
2015-Apr-12 19:33N 41°22' E 029°17'1 0.6
2015-Apr-12 18:32N 41°23' E 029°16'0 0.5
2015-Apr-12 17:34N 41°23' E 029°16'0 0.3
2015-Apr-12 16:34N 41°23' E 029°17'0 0.2
2015-Apr-12 15:34N 41°23' E 029°17'0 0.4
2015-Apr-12 14:33N 41°23' E 029°17'2 1.5
2015-Apr-12 13:34N 41°24' E 029°15'1 0.6
2015-Apr-12 12:34N 41°24' E 029°15'0 0.4
2015-Apr-12 11:34N 41°25' E 029°15'0 0.4
2015-Apr-12 10:34N 41°25' E 029°14'0 0.1
2015-Apr-12 09:31N 41°25' E 029°14'0 0.3
2015-Apr-12 08:34N 41°25' E 029°14'0 0.2
2015-Apr-12 06:34N 41°25' E 029°13'2 0.2
2015-Apr-11 19:33N 41°26' E 029°15'0 0.4
2015-Apr-11 18:31N 41°26' E 029°15'1 0.6
2015-Apr-11 17:34N 41°26' E 029°16'6 0.7
2015-Apr-11 08:28N 41°33' E 029°14'1516.5
2015-Apr-11 07:33N 41°47' E 029°19'1817.7
2015-Apr-11 06:33N 42°04' E 029°25'  

Dump ship's entire track history